Time;durP1;ratioP1;P1;durP2;ratioP2;P2;SDS_P1;SDS_P2;PMS_P1;PMS_P2;Temp;Humidity;BMP_temperature;BMP_pressure;BME280_temperature;BME280_humidity;BME280_pressure;Samples;Min_cycle;Max_cycle;Signal;HPM_P1;HPM_P2
2023/10/26 00:05:38;;;;;;;;;;;11.40;99.90;;;;;;4870568;29;19955;-74
2023/10/26 00:12:19;;;;;;;;;;;11.50;99.90;;;;;;4797166;30;20027;-74
2023/10/26 00:14:48;;;;;;;;;;;11.50;99.90;;;;;;4812316;29;19920;-74
2023/10/26 00:17:41;;;;;;;;;;;11.50;99.90;;;;;;4797527;30;19920;-74
2023/10/26 00:23:41;;;;;;;;;;;11.60;99.90;;;;;;4797674;30;19918;-73
2023/10/26 00:26:13;;;;;;;;;;;11.60;99.90;;;;;;4770691;30;20115;-73
2023/10/26 00:29:15;;;;;;;;;;;11.60;99.90;;;;;;4796873;29;20257;-75
2023/10/26 05:56:56;;;;;;;;;;;10.20;99.90;;;;;;5718010;23;19931;-75
2023/10/26 05:59:21;;;;;;;;;;;10.30;99.90;;;;;;4896062;29;19942;-78
2023/10/26 06:01:53;;;;;;;;;;;10.40;99.90;;;;;;4893994;29;20122;-74
2023/10/26 06:08:08;;;;;;;;;;;10.60;99.90;;;;;;4856743;29;19931;-75
2023/10/26 06:11:18;;;;;;;;;;;10.70;99.90;;;;;;4851942;29;20169;-76
2023/10/26 06:14:08;;;;;;;;;;;10.80;99.90;;;;;;4852364;29;19912;-75
2023/10/26 06:16:50;;;;;;;;;;;10.80;99.90;;;;;;4828931;29;20228;-74
2023/10/26 06:19:47;;;;;;;;;;;10.80;99.90;;;;;;4856978;29;19919;-74
2023/10/26 06:22:13;;;;;;;;;;;10.80;99.90;;;;;;4864803;29;19962;-74
2023/10/26 06:25:11;;;;;;;;;;;10.80;99.90;;;;;;4834330;29;19983;-75
2023/10/26 06:27:52;;;;;;;;;;;10.90;99.90;;;;;;4834443;29;19927;-75
2023/10/26 06:41:40;;;;;;;;;;;11.40;99.90;;;;;;4819710;29;19920;-75
2023/10/26 06:44:50;;;;;;;;;;;11.50;99.90;;;;;;4852953;29;19963;-74
2023/10/26 06:51:10;;;;;;;;;;;11.60;99.90;;;;;;4783959;29;19935;-74
2023/10/26 06:53:36;;;;;;;;;;;11.60;99.90;;;;;;4751355;30;19931;-75
2023/10/26 07:03:37;;;;;;;;;;;11.70;99.90;;;;;;4759241;30;19924;-74
2023/10/26 07:06:28;;;;;;;;;;;11.80;99.90;;;;;;4758924;30;20103;-76
2023/10/26 07:22:17;;;;;;;;;;;12.00;99.90;;;;;;4759077;30;20040;-74
2023/10/26 07:24:51;;;;;;;;;;;12.10;99.90;;;;;;4815403;29;19931;-75
2023/10/26 07:27:23;;;;;;;;;;;12.10;99.90;;;;;;4852286;29;19986;-75
2023/10/26 07:29:49;;;;;;;;;;;12.20;99.90;;;;;;4868925;29;19916;-75
2023/10/26 07:32:33;;;;;;;;;;;12.20;99.90;;;;;;4868717;29;19918;-75
2023/10/26 07:38:07;;;;;;;;;;;12.20;99.90;;;;;;4868112;29;19912;-74
2023/10/26 07:41:00;;;;;;;;;;;12.20;99.90;;;;;;4871111;29;19991;-76
2023/10/26 07:43:28;;;;;;;;;;;12.30;99.90;;;;;;4855399;29;19916;-75
2023/10/26 07:45:53;;;;;;;;;;;12.30;99.90;;;;;;4871024;29;19927;-75
2023/10/26 07:48:20;;;;;;;;;;;12.40;99.90;;;;;;4870103;29;19931;-75
2023/10/26 07:50:55;;;;;;;;;;;12.50;99.90;;;;;;4870617;29;19918;-76
2023/10/26 07:53:21;;;;;;;;;;;12.50;99.90;;;;;;4870238;29;19915;-74
2023/10/26 07:55:47;;;;;;;;;;;12.40;99.90;;;;;;4854617;29;20224;-77
2023/10/26 08:01:57;;;;;;;;;;;;;;;;;;;;;
2023/10/26 08:05:26;;;;;;;;;;;12.50;99.90;;;;;;4890442;29;19922;-76
2023/10/26 08:15:38;;;;;;;;;;;12.60;99.90;;;;;;4832819;29;19919;-77
2023/10/26 08:18:07;;;;;;;;;;;12.70;99.90;;;;;;4820485;29;19919;-77
2023/10/26 08:24:20;;;;;;;;;;;12.70;99.90;;;;;;4779116;30;19963;-76
2023/10/26 08:26:51;;;;;;;;;;;12.80;99.90;;;;;;4778936;30;19921;-76
2023/10/26 08:29:20;;;;;;;;;;;12.80;99.90;;;;;;4762760;30;19986;-76
2023/10/26 08:39:24;;;;;;;;;;;12.90;99.90;;;;;;4707793;30;19977;-76
2023/10/26 08:42:24;;;;;;;;;;;13.00;99.90;;;;;;4694618;30;20176;-77
2023/10/26 08:48:36;;;;;;;;;;;13.00;99.90;;;;;;4745740;29;19920;-74
2023/10/26 08:54:17;;;;;;;;;;;13.00;99.90;;;;;;4813880;29;20145;-76
2023/10/26 08:57:30;;;;;;;;;;;13.10;99.90;;;;;;4814337;29;20003;-76
2023/10/26 09:07:25;;;;;;;;;;;13.30;99.90;;;;;;4743240;30;19970;-77
2023/10/26 09:10:02;;;;;;;;;;;13.40;99.90;;;;;;4727359;30;19954;-77
2023/10/26 09:12:34;;;;;;;;;;;13.40;99.90;;;;;;4742645;30;20196;-75
2023/10/26 09:15:11;;;;;;;;;;;13.40;99.90;;;;;;4728226;30;19915;-76
2023/10/26 09:17:44;;;;;;;;;;;13.50;99.90;;;;;;4741873;30;19915;-78
2023/10/26 09:20:17;;;;;;;;;;;13.60;99.90;;;;;;4742077;30;20091;-77
2023/10/26 09:22:42;;;;;;;;;;;13.80;99.90;;;;;;4742388;30;19957;-77
2023/10/26 09:25:43;;;;;;;;;;;13.80;99.90;;;;;;4742411;30;19914;-77
2023/10/26 09:42:39;;;;;;;;;;;13.70;99.90;;;;;;5388079;23;19954;-76
2023/10/26 09:45:05;;;;;;;;;;;13.60;99.90;;;;;;4924976;29;20204;-77
2023/10/26 09:51:47;;;;;;;;;;;13.30;99.90;;;;;;4933188;29;19918;-74
2023/10/26 09:54:20;;;;;;;;;;;13.10;99.90;;;;;;4894557;29;20178;-74
2023/10/26 10:46:53;;;;;;;;;;;12.70;99.90;;;;;;4925217;29;19911;-79
2023/10/26 10:49:47;;;;;;;;;;;12.80;99.90;;;;;;4908754;29;20085;-78
2023/10/26 10:52:14;;;;;;;;;;;12.70;99.90;;;;;;4899802;29;19911;-76
2023/10/26 10:54:52;;;;;;;;;;;12.90;99.90;;;;;;4908989;29;19911;-77
2023/10/26 10:57:17;;;;;;;;;;;13.10;99.90;;;;;;4925681;29;20212;-77
2023/10/26 10:59:58;;;;;;;;;;;13.20;99.90;;;;;;4925718;29;19918;-77
2023/10/26 11:02:29;;;;;;;;;;;13.30;99.90;;;;;;4919807;29;20101;-76
2023/10/26 11:04:56;;;;;;;;;;;13.40;99.90;;;;;;4911698;29;20169;-77
2023/10/26 11:07:34;;;;;;;;;;;13.40;99.90;;;;;;4906257;29;19951;-78
2023/10/26 11:10:09;;;;;;;;;;;13.50;99.90;;;;;;4890163;29;20226;-77
2023/10/26 11:16:26;;;;;;;;;;;13.60;99.90;;;;;;4865644;29;19951;-78
2023/10/26 11:19:01;;;;;;;;;;;13.70;99.90;;;;;;4870472;29;19931;-79
2023/10/26 11:21:32;;;;;;;;;;;14.00;99.90;;;;;;4868788;29;20025;-79
2023/10/26 11:24:03;;;;;;;;;;;14.30;99.90;;;;;;4870013;29;19916;-77
2023/10/26 11:26:28;;;;;;;;;;;14.60;99.90;;;;;;4869453;29;19919;-77
2023/10/26 11:29:04;;;;;;;;;;;14.80;99.90;;;;;;4870129;29;19908;-78
2023/10/26 11:31:41;;;;;;;;;;;15.00;99.90;;;;;;4869355;29;19966;-78
2023/10/26 11:34:43;;;;;;;;;;;15.10;99.90;;;;;;4864681;29;19913;-78
2023/10/26 11:51:58;;;;;;;;;;;14.90;99.90;;;;;;4892028;29;19912;-79
2023/10/26 11:54:34;;;;;;;;;;;15.00;99.90;;;;;;4908482;29;19918;-79
2023/10/26 11:57:03;;;;;;;;;;;15.30;99.90;;;;;;4921421;29;19951;-79
2023/10/26 11:59:54;;;;;;;;;;;15.60;99.90;;;;;;4910035;29;19911;-79
2023/10/26 12:02:28;;;;;;;;;;;15.90;99.90;;;;;;4926302;29;19911;-80
2023/10/26 12:04:54;;;;;;;;;;;16.10;99.90;;;;;;4925778;29;19919;-79
2023/10/26 12:07:32;;;;;;;;;;;16.40;99.90;;;;;;4927662;29;19917;-78
2023/10/26 12:10:01;;;;;;;;;;;16.80;99.90;;;;;;4895463;29;19978;-77
2023/10/26 12:12:26;;;;;;;;;;;17.10;99.90;;;;;;4894794;29;20065;-77
2023/10/26 12:14:52;;;;;;;;;;;17.90;99.90;;;;;;4927272;29;19918;-80
2023/10/26 12:17:42;;;;;;;;;;;18.80;99.90;;;;;;4906337;29;20124;-79
2023/10/26 12:20:11;;;;;;;;;;;19.50;99.90;;;;;;4908447;29;20135;-78
2023/10/26 12:22:39;;;;;;;;;;;20.40;99.90;;;;;;4891689;29;19911;-79
2023/10/26 12:25:14;;;;;;;;;;;21.20;97.70;;;;;;4922422;29;19916;-77
2023/10/26 12:27:40;;;;;;;;;;;22.00;95.50;;;;;;4922525;29;19912;-80
2023/10/26 12:30:09;;;;;;;;;;;22.60;94.40;;;;;;4899888;29;19918;-79
2023/10/26 12:32:40;;;;;;;;;;;22.90;92.70;;;;;;4925765;29;19918;-81
2023/10/26 12:35:07;;;;;;;;;;;22.60;91.80;;;;;;4914090;29;20196;-78
2023/10/26 12:37:41;;;;;;;;;;;21.50;92.90;;;;;;4906743;29;19912;-78
2023/10/26 12:40:18;;;;;;;;;;;20.50;94.60;;;;;;4891745;29;19923;-79
2023/10/26 12:47:05;;;;;;;;;;;20.60;95.80;;;;;;4868999;29;19923;-79
2023/10/26 12:53:27;;;;;;;;;;;21.60;93.90;;;;;;4888898;29;19919;-77
2023/10/26 12:55:53;;;;;;;;;;;21.90;93.20;;;;;;4867856;29;19920;-76
2023/10/26 12:58:46;;;;;;;;;;;22.20;93.00;;;;;;4871685;29;20314;-78
2023/10/26 13:01:24;;;;;;;;;;;22.30;92.70;;;;;;4887597;29;19956;-77
2023/10/26 13:04:15;;;;;;;;;;;22.60;92.50;;;;;;4886622;29;19916;-77
2023/10/26 13:11:22;;;;;;;;;;;22.40;92.20;;;;;;4832165;29;20193;-77
2023/10/26 13:14:11;;;;;;;;;;;22.40;92.20;;;;;;4838486;29;20307;-78
2023/10/26 13:16:37;;;;;;;;;;;21.00;93.60;;;;;;4849426;29;19912;-77
2023/10/26 13:22:23;;;;;;;;;;;20.40;95.50;;;;;;4848230;29;19912;-78
2023/10/26 13:28:39;;;;;;;;;;;19.70;96.50;;;;;;4850065;29;19972;-76
2023/10/26 13:31:06;;;;;;;;;;;19.10;97.40;;;;;;4849482;29;19975;-77
2023/10/26 13:33:56;;;;;;;;;;;19.00;97.80;;;;;;4849073;29;19975;-74
2023/10/26 13:36:34;;;;;;;;;;;18.60;98.90;;;;;;4835017;29;19913;-75
2023/10/26 13:38:59;;;;;;;;;;;18.20;99.90;;;;;;4849886;29;20102;-77
2023/10/26 13:41:30;;;;;;;;;;;18.00;99.90;;;;;;4849151;29;19913;-78
2023/10/26 13:47:40;;;;;;;;;;;17.70;99.90;;;;;;4867879;29;19919;-78
2023/10/26 13:50:09;;;;;;;;;;;17.40;99.90;;;;;;4867881;29;19957;-77
2023/10/26 13:52:35;;;;;;;;;;;17.20;99.90;;;;;;4867136;29;19940;-76
2023/10/26 13:55:28;;;;;;;;;;;17.00;99.90;;;;;;4867597;29;19944;-76
2023/10/26 13:57:56;;;;;;;;;;;16.80;99.90;;;;;;4867367;29;19920;-78
2023/10/26 14:00:28;;;;;;;;;;;16.80;99.90;;;;;;4866866;29;20250;-76
2023/10/26 14:03:00;;;;;;;;;;;16.70;99.90;;;;;;4867375;29;19908;-76
2023/10/26 14:05:40;;;;;;;;;;;16.60;99.90;;;;;;4843399;29;19919;-78
2023/10/26 14:09:06;;;;;;;;;;;16.50;99.90;;;;;;4908429;29;20155;-78
2023/10/26 14:11:38;;;;;;;;;;;16.40;99.90;;;;;;4925218;29;19911;-76
2023/10/26 14:14:03;;;;;;;;;;;16.20;99.90;;;;;;4925455;29;19986;-78
2023/10/26 14:16:29;;;;;;;;;;;16.20;99.90;;;;;;4907822;29;19918;-76
2023/10/26 14:19:46;;;;;;;;;;;16.20;99.90;;;;;;4924023;29;19930;-77
2023/10/26 14:22:34;;;;;;;;;;;16.20;99.90;;;;;;4906827;29;19933;-77
2023/10/26 14:28:40;;;;;;;;;;;16.20;99.90;;;;;;4908466;29;19911;-78
2023/10/26 14:31:18;;;;;;;;;;;16.10;99.90;;;;;;4922887;29;19911;-77
2023/10/26 14:55:02;;;;;;;;;;;15.80;99.90;;;;;;4783298;29;19920;-76
2023/10/26 14:57:52;;;;;;;;;;;15.70;99.90;;;;;;4797051;29;20233;-76
2023/10/26 15:00:32;;;;;;;;;;;15.60;99.90;;;;;;4813038;29;19913;-78
2023/10/26 15:03:03;;;;;;;;;;;15.60;99.90;;;;;;4813086;29;19964;-74
2023/10/26 15:05:31;;;;;;;;;;;15.60;99.90;;;;;;4811885;29;19951;-75
2023/10/26 15:08:06;;;;;;;;;;;15.50;99.90;;;;;;4815869;29;19913;-77
2023/10/26 15:13:51;;;;;;;;;;;15.40;99.90;;;;;;4799148;29;20152;-75
2023/10/26 15:27:23;;;;;;;;;;;15.40;99.90;;;;;;4798399;29;19979;-74
2023/10/26 15:29:48;;;;;;;;;;;15.40;99.90;;;;;;4800087;29;19913;-74
2023/10/26 15:32:17;;;;;;;;;;;15.40;99.90;;;;;;4815095;29;20009;-73
2023/10/26 15:35:09;;;;;;;;;;;15.30;99.90;;;;;;4814895;29;20148;-73
2023/10/26 15:37:34;;;;;;;;;;;15.30;99.90;;;;;;4760515;30;20016;-73
2023/10/26 15:40:00;;;;;;;;;;;15.20;99.90;;;;;;4746704;30;20103;-74
2023/10/26 15:42:26;;;;;;;;;;;15.20;99.90;;;;;;4761646;30;19934;-74
2023/10/26 15:45:23;;;;;;;;;;;15.10;99.90;;;;;;4760884;30;20151;-74
2023/10/26 15:47:49;;;;;;;;;;;15.10;99.90;;;;;;4760643;30;19914;-75
2023/10/26 15:50:17;;;;;;;;;;;15.00;99.90;;;;;;4761313;30;20178;-74
2023/10/26 15:53:03;;;;;;;;;;;15.00;99.90;;;;;;4745245;30;19914;-75
2023/10/26 15:55:29;;;;;;;;;;;14.90;99.90;;;;;;4761147;30;20081;-73
2023/10/26 15:57:54;;;;;;;;;;;14.90;99.90;;;;;;4760994;30;19994;-73
2023/10/26 16:00:20;;;;;;;;;;;14.80;99.90;;;;;;4760278;30;20134;-73
2023/10/26 16:02:49;;;;;;;;;;;14.80;99.90;;;;;;4763187;30;20001;-75
2023/10/26 16:05:16;;;;;;;;;;;14.70;99.90;;;;;;4763865;30;19922;-74
2023/10/26 16:07:44;;;;;;;;;;;14.70;99.90;;;;;;4778210;30;19944;-74
2023/10/26 16:10:10;;;;;;;;;;;14.60;99.90;;;;;;4778986;30;19914;-75
2023/10/26 16:12:39;;;;;;;;;;;14.50;99.90;;;;;;4778323;30;19957;-73
2023/10/26 16:15:05;;;;;;;;;;;14.50;99.90;;;;;;4831626;29;19912;-73
2023/10/26 16:17:32;;;;;;;;;;;14.50;99.90;;;;;;4850719;29;19915;-73
2023/10/26 16:19:58;;;;;;;;;;;14.40;99.90;;;;;;4915905;29;19911;-75
2023/10/26 16:22:23;;;;;;;;;;;14.30;99.90;;;;;;4907572;29;20078;-73
2023/10/26 16:24:51;;;;;;;;;;;14.30;99.90;;;;;;4908273;29;19971;-72
2023/10/26 16:27:16;;;;;;;;;;;14.30;99.90;;;;;;4908762;29;20181;-74
2023/10/26 16:29:43;;;;;;;;;;;14.30;99.90;;;;;;4908256;29;19995;-74
2023/10/26 16:32:09;;;;;;;;;;;14.20;99.90;;;;;;4908850;29;20173;-76
2023/10/26 16:34:37;;;;;;;;;;;14.20;99.90;;;;;;4908514;29;20317;-75
2023/10/26 16:37:03;;;;;;;;;;;14.20;99.90;;;;;;4922533;29;19930;-75
2023/10/26 16:39:29;;;;;;;;;;;14.10;99.90;;;;;;4923188;29;19912;-76
2023/10/26 16:41:54;;;;;;;;;;;14.10;99.90;;;;;;4907939;29;19982;-73
2023/10/26 16:44:20;;;;;;;;;;;14.10;99.90;;;;;;4908455;29;19987;-73
2023/10/26 16:46:45;;;;;;;;;;;14.10;99.90;;;;;;4906632;29;20114;-75
2023/10/26 16:49:11;;;;;;;;;;;14.10;99.90;;;;;;4907300;29;19911;-75
2023/10/26 16:51:40;;;;;;;;;;;14.00;99.90;;;;;;4908134;29;19967;-75
2023/10/26 16:54:06;;;;;;;;;;;14.00;99.90;;;;;;4902681;29;19914;-76
2023/10/26 16:56:32;;;;;;;;;;;14.00;99.90;;;;;;4891716;29;20089;-76
2023/10/26 16:59:01;;;;;;;;;;;14.00;99.90;;;;;;4891060;29;19908;-78
2023/10/26 17:01:27;;;;;;;;;;;14.00;99.90;;;;;;4891524;29;19967;-75
2023/10/26 17:03:53;;;;;;;;;;;14.00;99.90;;;;;;4907363;29;20155;-75
2023/10/26 17:06:19;;;;;;;;;;;14.00;99.90;;;;;;4908838;29;19946;-76
2023/10/26 17:08:45;;;;;;;;;;;14.00;99.90;;;;;;4909682;29;19911;-77
2023/10/26 17:11:10;;;;;;;;;;;14.00;99.90;;;;;;4909936;29;20081;-77
2023/10/26 17:13:38;;;;;;;;;;;14.00;99.90;;;;;;4927083;29;19907;-77
2023/10/26 17:16:04;;;;;;;;;;;13.90;99.90;;;;;;4907239;29;19919;-79
2023/10/26 17:21:52;;;;;;;;;;;13.90;99.90;;;;;;4908208;29;19919;-78
2023/10/26 17:24:18;;;;;;;;;;;13.90;99.90;;;;;;4907404;29;19915;-77
2023/10/26 17:26:46;;;;;;;;;;;13.90;99.90;;;;;;4907831;29;20002;-76
2023/10/26 17:29:12;;;;;;;;;;;13.90;99.90;;;;;;4906181;29;19911;-75
2023/10/26 17:31:38;;;;;;;;;;;13.90;99.90;;;;;;4908500;29;19907;-75
2023/10/26 17:34:04;;;;;;;;;;;13.90;99.90;;;;;;4908966;29;20173;-77
2023/10/26 17:36:29;;;;;;;;;;;13.90;99.90;;;;;;4892033;29;19911;-75
2023/10/26 17:38:58;;;;;;;;;;;13.90;99.90;;;;;;4907354;29;19922;-77
2023/10/26 17:41:24;;;;;;;;;;;13.90;99.90;;;;;;4909097;29;19915;-77
2023/10/26 17:44:17;;;;;;;;;;;13.80;99.90;;;;;;4906083;29;20214;-78
2023/10/26 17:46:44;;;;;;;;;;;13.80;99.90;;;;;;4911675;29;20006;-77
2023/10/26 17:49:12;;;;;;;;;;;13.80;99.90;;;;;;4919957;29;19911;-79
2023/10/26 17:51:41;;;;;;;;;;;13.80;99.90;;;;;;4898600;29;20258;-77
2023/10/26 17:57:29;;;;;;;;;;;13.70;99.90;;;;;;4930403;29;19949;-77
2023/10/26 18:00:13;;;;;;;;;;;13.70;99.90;;;;;;4927958;29;19911;-76
2023/10/26 18:02:45;;;;;;;;;;;13.80;99.90;;;;;;4918070;29;19911;-78
2023/10/26 18:05:11;;;;;;;;;;;13.80;99.90;;;;;;4907021;29;19915;-77
2023/10/26 18:07:52;;;;;;;;;;;13.80;99.90;;;;;;4848100;29;20215;-79
2023/10/26 18:10:55;;;;;;;;;;;13.80;99.90;;;;;;4893147;29;19912;-77
2023/10/26 18:13:20;;;;;;;;;;;13.80;99.90;;;;;;4893447;29;19946;-76
2023/10/26 18:15:46;;;;;;;;;;;13.80;99.90;;;;;;4925206;29;20089;-77
2023/10/26 18:18:11;;;;;;;;;;;13.80;99.90;;;;;;4927110;29;19963;-77
2023/10/26 18:20:37;;;;;;;;;;;13.80;99.90;;;;;;4926944;29;19907;-77
2023/10/26 18:23:02;;;;;;;;;;;13.70;99.90;;;;;;4924707;29;19918;-79
2023/10/26 18:25:28;;;;;;;;;;;13.70;99.90;;;;;;4927141;29;20199;-76
2023/10/26 18:27:54;;;;;;;;;;;13.70;99.90;;;;;;4927184;29;20087;-77
2023/10/26 18:30:19;;;;;;;;;;;13.60;99.90;;;;;;4927647;29;19919;-77
2023/10/26 18:32:45;;;;;;;;;;;13.50;99.90;;;;;;4943828;29;19963;-78
2023/10/26 18:35:31;;;;;;;;;;;13.50;99.90;;;;;;4928339;29;20002;-77
2023/10/26 18:49:09;;;;;;;;;;;13.40;99.90;;;;;;4833534;29;19931;-78
2023/10/26 18:51:56;;;;;;;;;;;13.40;99.90;;;;;;4852368;29;19917;-78
2023/10/26 18:55:00;;;;;;;;;;;13.30;99.90;;;;;;4836934;29;19923;-79
2023/10/26 18:57:35;;;;;;;;;;;13.20;99.90;;;;;;4798301;30;19941;-77
2023/10/26 19:06:51;;;;;;;;;;;13.10;99.90;;;;;;4797318;30;20019;-76
2023/10/26 19:09:42;;;;;;;;;;;13.10;99.90;;;;;;4777864;30;19964;-76
2023/10/26 19:15:38;;;;;;;;;;;13.00;99.90;;;;;;4778627;30;19944;-77
2023/10/26 19:18:07;;;;;;;;;;;12.90;99.90;;;;;;4778659;30;19921;-77
2023/10/26 19:20:33;;;;;;;;;;;13.00;99.90;;;;;;4779293;30;19921;-77
2023/10/26 19:22:59;;;;;;;;;;;12.90;99.90;;;;;;4794527;30;19932;-77
2023/10/26 19:25:34;;;;;;;;;;;12.90;99.90;;;;;;4797379;30;20235;-77
2023/10/26 19:28:00;;;;;;;;;;;12.90;99.90;;;;;;4796418;30;19921;-79
2023/10/26 19:30:29;;;;;;;;;;;12.90;99.90;;;;;;4796332;29;19921;-78
2023/10/26 19:32:58;;;;;;;;;;;12.90;99.90;;;;;;4795055;30;20107;-77
2023/10/26 19:38:51;;;;;;;;;;;12.80;99.90;;;;;;4854991;29;20009;-77
2023/10/26 19:41:17;;;;;;;;;;;12.70;99.90;;;;;;4855636;29;19913;-76
2023/10/26 19:43:52;;;;;;;;;;;12.70;99.90;;;;;;4895636;29;20024;-76
2023/10/26 19:46:18;;;;;;;;;;;12.70;99.90;;;;;;4912508;29;19940;-77
2023/10/26 19:48:43;;;;;;;;;;;12.70;99.90;;;;;;4909891;29;19911;-76
2023/10/26 19:51:09;;;;;;;;;;;12.70;99.90;;;;;;4925729;29;19966;-77
2023/10/26 19:53:42;;;;;;;;;;;12.60;99.90;;;;;;4949053;29;20192;-76
2023/10/26 19:56:08;;;;;;;;;;;12.60;99.90;;;;;;4949034;29;19917;-77
2023/10/26 19:58:34;;;;;;;;;;;12.60;99.90;;;;;;4928817;29;19946;-75
2023/10/26 20:00:59;;;;;;;;;;;12.60;99.90;;;;;;4922797;29;19906;-75
2023/10/26 20:03:28;;;;;;;;;;;12.60;99.90;;;;;;4948319;29;19915;-78
2023/10/26 20:05:56;;;;;;;;;;;12.60;99.90;;;;;;4948768;29;19934;-77
2023/10/26 20:08:55;;;;;;;;;;;12.60;99.90;;;;;;4949650;29;19910;-77
2023/10/26 20:11:20;;;;;;;;;;;12.60;99.90;;;;;;4937582;29;19915;-77
2023/10/26 20:13:56;;;;;;;;;;;12.60;99.90;;;;;;4919631;29;19926;-77
2023/10/26 20:17:00;;;;;;;;;;;12.60;99.90;;;;;;4932687;29;19934;-75
2023/10/26 20:19:26;;;;;;;;;;;12.60;99.90;;;;;;4911879;29;19911;-78
2023/10/26 20:22:12;;;;;;;;;;;12.60;99.90;;;;;;4931536;29;20013;-77
2023/10/26 20:24:47;;;;;;;;;;;12.60;99.90;;;;;;4931253;29;19923;-76
2023/10/26 20:27:48;;;;;;;;;;;12.60;99.90;;;;;;4930758;29;19922;-78
2023/10/26 20:30:17;;;;;;;;;;;12.60;99.90;;;;;;4930796;29;20003;-77
2023/10/26 20:32:42;;;;;;;;;;;12.50;99.90;;;;;;4930736;29;19918;-77
2023/10/26 20:35:08;;;;;;;;;;;12.50;99.90;;;;;;4914913;29;19981;-77
2023/10/26 20:37:34;;;;;;;;;;;12.50;99.90;;;;;;4930997;29;19911;-77
2023/10/26 20:40:04;;;;;;;;;;;12.60;99.90;;;;;;4914316;29;19911;-76
2023/10/26 20:42:30;;;;;;;;;;;12.50;99.90;;;;;;4915597;29;20129;-76
2023/10/26 20:44:56;;;;;;;;;;;12.60;99.90;;;;;;4914399;29;19918;-77
2023/10/26 20:47:22;;;;;;;;;;;12.50;99.90;;;;;;4914069;29;19927;-76
2023/10/26 20:49:49;;;;;;;;;;;12.50;99.90;;;;;;4914903;29;19943;-76
2023/10/26 20:52:14;;;;;;;;;;;12.50;99.90;;;;;;4914094;29;19983;-75
2023/10/26 20:54:40;;;;;;;;;;;12.40;99.90;;;;;;4930252;29;19911;-76
2023/10/26 20:57:05;;;;;;;;;;;12.40;99.90;;;;;;4896521;29;19911;-77
2023/10/26 20:59:31;;;;;;;;;;;12.30;99.90;;;;;;4934920;29;19946;-78
2023/10/26 21:01:57;;;;;;;;;;;12.40;99.90;;;;;;4965011;29;20088;-77
2023/10/26 21:04:31;;;;;;;;;;;12.30;99.90;;;;;;4927544;29;19915;-77
2023/10/26 21:06:57;;;;;;;;;;;12.30;99.90;;;;;;4946215;29;19918;-76
2023/10/26 21:09:23;;;;;;;;;;;12.30;99.90;;;;;;4932417;29;19969;-76
2023/10/26 21:11:48;;;;;;;;;;;12.30;99.90;;;;;;4932979;29;19926;-78
2023/10/26 21:14:14;;;;;;;;;;;12.20;99.90;;;;;;4966963;29;19974;-77
2023/10/26 21:16:40;;;;;;;;;;;12.20;99.90;;;;;;4932753;29;20211;-78
2023/10/26 21:19:07;;;;;;;;;;;12.20;99.90;;;;;;4946673;29;20193;-77
2023/10/26 21:21:33;;;;;;;;;;;12.20;99.90;;;;;;4931817;29;19910;-77
2023/10/26 21:23:58;;;;;;;;;;;12.20;99.90;;;;;;4951127;29;19987;-78
2023/10/26 21:26:40;;;;;;;;;;;12.20;99.90;;;;;;4952591;29;20208;-77
2023/10/26 21:29:11;;;;;;;;;;;12.20;99.90;;;;;;4951301;29;19911;-76
2023/10/26 21:31:49;;;;;;;;;;;12.20;99.90;;;;;;4934031;29;20193;-77
2023/10/26 21:34:15;;;;;;;;;;;12.20;99.90;;;;;;4951080;29;19918;-77
2023/10/26 21:39:44;;;;;;;;;;;12.20;99.90;;;;;;4932073;29;19911;-80
2023/10/26 21:42:12;;;;;;;;;;;12.20;99.90;;;;;;4931738;29;19946;-77
2023/10/26 21:44:41;;;;;;;;;;;12.20;99.90;;;;;;4914116;29;19911;-78
2023/10/26 21:47:13;;;;;;;;;;;12.20;99.90;;;;;;4929076;29;19938;-78
2023/10/26 21:50:05;;;;;;;;;;;12.20;99.90;;;;;;4938780;29;19942;-77
2023/10/26 21:52:41;;;;;;;;;;;12.20;99.90;;;;;;4948105;29;19942;-78
2023/10/26 21:55:34;;;;;;;;;;;12.20;99.90;;;;;;4939030;29;19918;-77
2023/10/26 21:58:24;;;;;;;;;;;12.20;99.90;;;;;;4935132;29;19911;-77
2023/10/26 22:00:53;;;;;;;;;;;12.10;99.90;;;;;;4930146;29;19911;-77
2023/10/26 22:03:26;;;;;;;;;;;12.10;99.90;;;;;;4928834;29;19915;-77
2023/10/26 22:05:51;;;;;;;;;;;12.10;99.90;;;;;;4947563;29;19911;-78
2023/10/26 22:08:20;;;;;;;;;;;12.10;99.90;;;;;;4929449;29;19949;-75
2023/10/26 22:10:45;;;;;;;;;;;12.10;99.90;;;;;;4945800;29;19911;-79
2023/10/26 22:13:14;;;;;;;;;;;12.10;99.90;;;;;;4928310;29;20165;-77
2023/10/26 22:15:43;;;;;;;;;;;12.20;99.90;;;;;;4930008;29;19911;-76
2023/10/26 22:18:08;;;;;;;;;;;12.10;99.90;;;;;;4945256;29;20054;-78
2023/10/26 22:24:04;;;;;;;;;;;12.10;99.90;;;;;;4945404;29;19938;-78
2023/10/26 22:29:58;;;;;;;;;;;12.10;99.90;;;;;;4944647;29;19958;-77
2023/10/26 22:32:24;;;;;;;;;;;12.00;99.90;;;;;;4910703;29;19982;-77
2023/10/26 22:34:50;;;;;;;;;;;12.00;99.90;;;;;;4927169;29;19953;-76
2023/10/26 22:37:27;;;;;;;;;;;12.00;99.90;;;;;;4927346;29;19955;-78
2023/10/26 22:39:53;;;;;;;;;;;11.90;99.90;;;;;;4926886;29;20087;-77
2023/10/26 22:42:31;;;;;;;;;;;11.80;99.90;;;;;;4925093;29;19918;-77
2023/10/26 22:45:03;;;;;;;;;;;11.80;99.90;;;;;;4927053;29;20195;-79
2023/10/26 22:47:29;;;;;;;;;;;11.80;99.90;;;;;;4937805;29;19930;-76
2023/10/26 22:50:03;;;;;;;;;;;11.70;99.90;;;;;;4928872;29;19923;-80
2023/10/26 22:52:29;;;;;;;;;;;11.70;99.90;;;;;;4929243;29;19936;-77
2023/10/26 22:54:55;;;;;;;;;;;11.60;99.90;;;;;;4928996;29;20234;-77
2023/10/26 22:57:20;;;;;;;;;;;11.60;99.90;;;;;;4928378;29;19966;-77
2023/10/26 22:59:46;;;;;;;;;;;11.60;99.90;;;;;;4945964;29;19911;-77
2023/10/26 23:02:12;;;;;;;;;;;11.60;99.90;;;;;;4945330;29;20108;-77
2023/10/26 23:04:38;;;;;;;;;;;11.60;99.90;;;;;;4944041;29;19911;-76
2023/10/26 23:07:28;;;;;;;;;;;11.60;99.90;;;;;;4927878;29;19914;-76
2023/10/26 23:09:54;;;;;;;;;;;11.50;99.90;;;;;;4948391;29;20089;-77
2023/10/26 23:12:22;;;;;;;;;;;11.60;99.90;;;;;;4947716;29;19917;-77
2023/10/26 23:14:48;;;;;;;;;;;11.60;99.90;;;;;;4949094;29;20252;-77
2023/10/26 23:17:14;;;;;;;;;;;11.60;99.90;;;;;;4947691;29;19913;-76
2023/10/26 23:19:42;;;;;;;;;;;11.60;99.90;;;;;;4947784;29;19974;-76
2023/10/26 23:22:31;;;;;;;;;;;11.60;99.90;;;;;;4919432;29;19954;-77
2023/10/26 23:25:07;;;;;;;;;;;11.60;99.90;;;;;;4904108;29;20208;-77
2023/10/26 23:27:39;;;;;;;;;;;11.70;99.90;;;;;;4914508;29;19911;-78
2023/10/26 23:30:11;;;;;;;;;;;11.60;99.90;;;;;;4897807;29;19911;-78
2023/10/26 23:32:36;;;;;;;;;;;11.70;99.90;;;;;;4930859;29;19911;-77
2023/10/26 23:35:02;;;;;;;;;;;11.70;99.90;;;;;;4929701;29;19955;-77
2023/10/26 23:37:27;;;;;;;;;;;11.60;99.90;;;;;;4929202;29;20082;-79
2023/10/26 23:39:55;;;;;;;;;;;11.70;99.90;;;;;;4931065;29;19951;-75
2023/10/26 23:42:24;;;;;;;;;;;11.60;99.90;;;;;;4930394;29;19921;-79
2023/10/26 23:45:28;;;;;;;;;;;11.60;99.90;;;;;;4931131;29;19915;-76
2023/10/26 23:47:59;;;;;;;;;;;11.60;99.90;;;;;;4891754;29;19919;-77
2023/10/26 23:50:27;;;;;;;;;;;11.60;99.90;;;;;;4890170;29;19928;-78
2023/10/26 23:52:56;;;;;;;;;;;11.60;99.90;;;;;;4890545;29;19957;-78
2023/10/26 23:55:28;;;;;;;;;;;11.60;99.90;;;;;;4889740;29;19927;-77
2023/10/26 23:57:53;;;;;;;;;;;11.60;99.90;;;;;;4889245;29;19952;-76
